sensor_id;sensor_type;location;lat;lon;timestamp;P1;durP1;ratioP1;P2;durP2;ratioP2
54835;SDS011;43486;43.574;1.476;2022-10-04T00:00:46;18.48;;;4.28;;
54835;SDS011;43486;43.574;1.476;2022-10-04T00:03:22;10.15;;;4.43;;
54835;SDS011;43486;43.574;1.476;2022-10-04T00:05:54;6.97;;;3.47;;
54835;SDS011;43486;43.574;1.476;2022-10-04T00:13:52;8.77;;;4.05;;
54835;SDS011;43486;43.574;1.476;2022-10-04T00:16:22;13.45;;;4.07;;
54835;SDS011;43486;43.574;1.476;2022-10-04T00:19:01;8.13;;;3.88;;
54835;SDS011;43486;43.574;1.476;2022-10-04T00:22:24;10.00;;;3.80;;
54835;SDS011;43486;43.574;1.476;2022-10-04T00:24:31;7.78;;;2.75;;
54835;SDS011;43486;43.574;1.476;2022-10-04T00:32:29;5.93;;;3.20;;
54835;SDS011;43486;43.574;1.476;2022-10-04T00:34:56;6.85;;;3.75;;
54835;SDS011;43486;43.574;1.476;2022-10-04T00:37:23;8.90;;;5.00;;
54835;SDS011;43486;43.574;1.476;2022-10-04T00:40:00;9.77;;;4.65;;
54835;SDS011;43486;43.574;1.476;2022-10-04T00:42:32;9.05;;;3.75;;
54835;SDS011;43486;43.574;1.476;2022-10-04T00:52:57;8.57;;;3.65;;
54835;SDS011;43486;43.574;1.476;2022-10-04T00:55:25;7.60;;;3.42;;
54835;SDS011;43486;43.574;1.476;2022-10-04T00:58:04;9.02;;;3.30;;
54835;SDS011;43486;43.574;1.476;2022-10-04T01:00:36;7.00;;;3.40;;
54835;SDS011;43486;43.574;1.476;2022-10-04T01:03:17;5.38;;;3.28;;
54835;SDS011;43486;43.574;1.476;2022-10-04T01:06:00;15.65;;;5.15;;
54835;SDS011;43486;43.574;1.476;2022-10-04T01:11:03;9.32;;;3.70;;
54835;SDS011;43486;43.574;1.476;2022-10-04T01:16:16;10.70;;;3.53;;
54835;SDS011;43486;43.574;1.476;2022-10-04T01:18:43;11.20;;;4.57;;
54835;SDS011;43486;43.574;1.476;2022-10-04T01:31:25;9.32;;;3.70;;
54835;SDS011;43486;43.574;1.476;2022-10-04T01:33:51;11.02;;;4.03;;
54835;SDS011;43486;43.574;1.476;2022-10-04T01:36:18;5.72;;;2.90;;
54835;SDS011;43486;43.574;1.476;2022-10-04T01:38:44;7.45;;;3.25;;
54835;SDS011;43486;43.574;1.476;2022-10-04T01:41:10;10.38;;;3.80;;
54835;SDS011;43486;43.574;1.476;2022-10-04T01:43:36;17.30;;;5.15;;
54835;SDS011;43486;43.574;1.476;2022-10-04T01:46:05;6.82;;;3.13;;
54835;SDS011;43486;43.574;1.476;2022-10-04T01:48:37;6.85;;;3.53;;
54835;SDS011;43486;43.574;1.476;2022-10-04T01:51:13;8.73;;;3.22;;
54835;SDS011;43486;43.574;1.476;2022-10-04T01:53:51;8.63;;;2.70;;
54835;SDS011;43486;43.574;1.476;2022-10-04T01:56:22;7.90;;;3.42;;
54835;SDS011;43486;43.574;1.476;2022-10-04T01:59:04;6.95;;;2.72;;
54835;SDS011;43486;43.574;1.476;2022-10-04T02:04:03;6.32;;;3.17;;
54835;SDS011;43486;43.574;1.476;2022-10-04T02:06:34;8.77;;;2.80;;
54835;SDS011;43486;43.574;1.476;2022-10-04T02:09:05;5.20;;;2.58;;
54835;SDS011;43486;43.574;1.476;2022-10-04T02:11:32;12.82;;;4.18;;
54835;SDS011;43486;43.574;1.476;2022-10-04T02:13:58;8.07;;;4.35;;
54835;SDS011;43486;43.574;1.476;2022-10-04T02:16:25;7.30;;;3.85;;
54835;SDS011;43486;43.574;1.476;2022-10-04T02:18:51;7.28;;;3.55;;
54835;SDS011;43486;43.574;1.476;2022-10-04T02:21:17;8.10;;;3.00;;
54835;SDS011;43486;43.574;1.476;2022-10-04T02:23:43;6.22;;;3.47;;
54835;SDS011;43486;43.574;1.476;2022-10-04T02:26:09;7.15;;;3.63;;
54835;SDS011;43486;43.574;1.476;2022-10-04T02:28:35;8.85;;;4.28;;
54835;SDS011;43486;43.574;1.476;2022-10-04T02:31:01;6.13;;;2.95;;
54835;SDS011;43486;43.574;1.476;2022-10-04T02:33:47;7.10;;;3.83;;
54835;SDS011;43486;43.574;1.476;2022-10-04T02:36:14;8.15;;;4.30;;
54835;SDS011;43486;43.574;1.476;2022-10-04T02:39:00;11.27;;;3.92;;
54835;SDS011;43486;43.574;1.476;2022-10-04T02:41:32;9.20;;;3.40;;
54835;SDS011;43486;43.574;1.476;2022-10-04T02:44:16;6.35;;;2.33;;
54835;SDS011;43486;43.574;1.476;2022-10-04T02:52:12;7.28;;;3.63;;
54835;SDS011;43486;43.574;1.476;2022-10-04T02:54:43;5.72;;;2.80;;
54835;SDS011;43486;43.574;1.476;2022-10-04T02:57:18;8.93;;;2.22;;
54835;SDS011;43486;43.574;1.476;2022-10-04T02:59:44;9.85;;;3.00;;
54835;SDS011;43486;43.574;1.476;2022-10-04T03:02:26;6.22;;;2.45;;
54835;SDS011;43486;43.574;1.476;2022-10-04T03:04:53;6.05;;;2.70;;
54835;SDS011;43486;43.574;1.476;2022-10-04T03:07:20;4.88;;;2.38;;
54835;SDS011;43486;43.574;1.476;2022-10-04T03:09:46;7.65;;;2.72;;
54835;SDS011;43486;43.574;1.476;2022-10-04T03:12:12;5.38;;;2.28;;
54835;SDS011;43486;43.574;1.476;2022-10-04T03:14:38;10.50;;;3.05;;
54835;SDS011;43486;43.574;1.476;2022-10-04T03:17:05;5.97;;;2.80;;
54835;SDS011;43486;43.574;1.476;2022-10-04T03:19:31;7.32;;;3.05;;
54835;SDS011;43486;43.574;1.476;2022-10-04T03:22:02;7.45;;;4.72;;
54835;SDS011;43486;43.574;1.476;2022-10-04T03:24:32;7.03;;;2.50;;
54835;SDS011;43486;43.574;1.476;2022-10-04T03:27:05;8.52;;;3.08;;
54835;SDS011;43486;43.574;1.476;2022-10-04T03:29:32;9.43;;;2.97;;
54835;SDS011;43486;43.574;1.476;2022-10-04T03:31:59;5.13;;;2.40;;
54835;SDS011;43486;43.574;1.476;2022-10-04T03:34:38;6.43;;;3.05;;
54835;SDS011;43486;43.574;1.476;2022-10-04T03:37:06;9.55;;;3.63;;
54835;SDS011;43486;43.574;1.476;2022-10-04T03:39:36;6.10;;;3.17;;
54835;SDS011;43486;43.574;1.476;2022-10-04T03:42:35;9.32;;;2.95;;
54835;SDS011;43486;43.574;1.476;2022-10-04T03:44:55;5.10;;;2.50;;
54835;SDS011;43486;43.574;1.476;2022-10-04T03:47:39;6.47;;;2.30;;
54835;SDS011;43486;43.574;1.476;2022-10-04T03:50:25;4.22;;;2.38;;
54835;SDS011;43486;43.574;1.476;2022-10-04T03:52:57;6.47;;;3.00;;
54835;SDS011;43486;43.574;1.476;2022-10-04T03:55:24;5.93;;;3.58;;
54835;SDS011;43486;43.574;1.476;2022-10-04T03:58:00;6.40;;;2.55;;
54835;SDS011;43486;43.574;1.476;2022-10-04T04:00:25;4.85;;;2.35;;
54835;SDS011;43486;43.574;1.476;2022-10-04T04:02:53;3.97;;;2.15;;
54835;SDS011;43486;43.574;1.476;2022-10-04T04:10:30;6.78;;;2.53;;
54835;SDS011;43486;43.574;1.476;2022-10-04T04:13:04;4.68;;;2.65;;
54835;SDS011;43486;43.574;1.476;2022-10-04T04:18:02;6.80;;;2.30;;
54835;SDS011;43486;43.574;1.476;2022-10-04T04:20:40;3.58;;;2.25;;
54835;SDS011;43486;43.574;1.476;2022-10-04T04:25:39;4.72;;;2.38;;
54835;SDS011;43486;43.574;1.476;2022-10-04T04:28:12;7.90;;;2.60;;
54835;SDS011;43486;43.574;1.476;2022-10-04T04:30:43;4.55;;;2.80;;
54835;SDS011;43486;43.574;1.476;2022-10-04T04:33:12;8.93;;;2.95;;
54835;SDS011;43486;43.574;1.476;2022-10-04T04:35:45;5.82;;;2.70;;
54835;SDS011;43486;43.574;1.476;2022-10-04T04:40:47;5.05;;;2.63;;
54835;SDS011;43486;43.574;1.476;2022-10-04T04:43:18;7.78;;;2.80;;
54835;SDS011;43486;43.574;1.476;2022-10-04T04:45:44;4.35;;;2.40;;
54835;SDS011;43486;43.574;1.476;2022-10-04T04:48:13;4.50;;;2.65;;
54835;SDS011;43486;43.574;1.476;2022-10-04T04:50:40;5.35;;;2.25;;
54835;SDS011;43486;43.574;1.476;2022-10-04T04:58:40;4.05;;;2.15;;
54835;SDS011;43486;43.574;1.476;2022-10-04T05:01:23;6.20;;;2.85;;
54835;SDS011;43486;43.574;1.476;2022-10-04T05:04:04;7.13;;;3.13;;
54835;SDS011;43486;43.574;1.476;2022-10-04T05:06:31;5.60;;;2.78;;
54835;SDS011;43486;43.574;1.476;2022-10-04T05:08:57;8.15;;;2.92;;
54835;SDS011;43486;43.574;1.476;2022-10-04T05:11:24;4.85;;;2.33;;
54835;SDS011;43486;43.574;1.476;2022-10-04T05:13:55;14.73;;;2.97;;
54835;SDS011;43486;43.574;1.476;2022-10-04T05:16:40;12.68;;;2.55;;
54835;SDS011;43486;43.574;1.476;2022-10-04T05:19:10;7.28;;;2.90;;
54835;SDS011;43486;43.574;1.476;2022-10-04T05:21:46;6.90;;;3.20;;
54835;SDS011;43486;43.574;1.476;2022-10-04T05:24:17;5.10;;;2.60;;
54835;SDS011;43486;43.574;1.476;2022-10-04T05:26:43;4.53;;;2.42;;
54835;SDS011;43486;43.574;1.476;2022-10-04T05:29:15;5.22;;;2.35;;
54835;SDS011;43486;43.574;1.476;2022-10-04T05:31:52;5.72;;;2.63;;
54835;SDS011;43486;43.574;1.476;2022-10-04T05:34:47;4.95;;;2.85;;
54835;SDS011;43486;43.574;1.476;2022-10-04T05:42:41;2.72;;;1.73;;
54835;SDS011;43486;43.574;1.476;2022-10-04T05:45:13;3.33;;;1.95;;
54835;SDS011;43486;43.574;1.476;2022-10-04T05:47:51;7.22;;;2.95;;
54835;SDS011;43486;43.574;1.476;2022-10-04T05:50:32;4.97;;;2.97;;
54835;SDS011;43486;43.574;1.476;2022-10-04T05:53:11;6.85;;;3.47;;
54835;SDS011;43486;43.574;1.476;2022-10-04T05:58:37;5.60;;;3.08;;
54835;SDS011;43486;43.574;1.476;2022-10-04T06:06:51;10.68;;;3.88;;
54835;SDS011;43486;43.574;1.476;2022-10-04T06:14:43;5.55;;;2.40;;
54835;SDS011;43486;43.574;1.476;2022-10-04T06:17:37;4.93;;;2.30;;
54835;SDS011;43486;43.574;1.476;2022-10-04T06:22:59;10.50;;;1.63;;
54835;SDS011;43486;43.574;1.476;2022-10-04T06:25:35;4.20;;;2.47;;
54835;SDS011;43486;43.574;1.476;2022-10-04T06:30:41;10.82;;;2.75;;
54835;SDS011;43486;43.574;1.476;2022-10-04T06:54:54;5.95;;;2.78;;
54835;SDS011;43486;43.574;1.476;2022-10-04T07:00:23;8.18;;;3.72;;
54835;SDS011;43486;43.574;1.476;2022-10-04T07:03:32;5.65;;;2.75;;
54835;SDS011;43486;43.574;1.476;2022-10-04T07:05:44;4.25;;;2.17;;
54835;SDS011;43486;43.574;1.476;2022-10-04T07:11:14;6.00;;;3.22;;
54835;SDS011;43486;43.574;1.476;2022-10-04T07:13:46;5.80;;;2.33;;
54835;SDS011;43486;43.574;1.476;2022-10-04T07:18:55;7.30;;;2.75;;
54835;SDS011;43486;43.574;1.476;2022-10-04T07:21:23;7.65;;;2.83;;
54835;SDS011;43486;43.574;1.476;2022-10-04T07:23:59;5.30;;;3.08;;
54835;SDS011;43486;43.574;1.476;2022-10-04T07:26:36;3.70;;;1.90;;
54835;SDS011;43486;43.574;1.476;2022-10-04T07:29:16;5.78;;;2.70;;
54835;SDS011;43486;43.574;1.476;2022-10-04T07:31:44;4.00;;;2.92;;
54835;SDS011;43486;43.574;1.476;2022-10-04T07:34:24;7.40;;;2.60;;
54835;SDS011;43486;43.574;1.476;2022-10-04T07:36:52;6.93;;;2.60;;
54835;SDS011;43486;43.574;1.476;2022-10-04T07:39:24;7.03;;;2.08;;
54835;SDS011;43486;43.574;1.476;2022-10-04T07:41:56;4.50;;;3.00;;
54835;SDS011;43486;43.574;1.476;2022-10-04T07:44:31;4.70;;;1.65;;
54835;SDS011;43486;43.574;1.476;2022-10-04T07:47:12;7.95;;;2.40;;
54835;SDS011;43486;43.574;1.476;2022-10-04T07:49:52;5.07;;;3.33;;
54835;SDS011;43486;43.574;1.476;2022-10-04T07:52:21;7.57;;;3.92;;
54835;SDS011;43486;43.574;1.476;2022-10-04T07:57:26;9.75;;;3.33;;
54835;SDS011;43486;43.574;1.476;2022-10-04T08:00:10;6.43;;;2.22;;
54835;SDS011;43486;43.574;1.476;2022-10-04T08:02:40;9.55;;;2.58;;
54835;SDS011;43486;43.574;1.476;2022-10-04T08:10:55;4.63;;;1.85;;
54835;SDS011;43486;43.574;1.476;2022-10-04T08:13:42;4.13;;;1.95;;
54835;SDS011;43486;43.574;1.476;2022-10-04T08:16:24;6.78;;;3.38;;
54835;SDS011;43486;43.574;1.476;2022-10-04T08:22:18;6.10;;;2.80;;
54835;SDS011;43486;43.574;1.476;2022-10-04T08:59:53;6.00;;;2.55;;
54835;SDS011;43486;43.574;1.476;2022-10-04T09:13:39;5.90;;;2.13;;
54835;SDS011;43486;43.574;1.476;2022-10-04T09:16:17;6.35;;;2.95;;
54835;SDS011;43486;43.574;1.476;2022-10-04T09:18:47;3.75;;;2.05;;
54835;SDS011;43486;43.574;1.476;2022-10-04T09:21:20;3.88;;;2.20;;
54835;SDS011;43486;43.574;1.476;2022-10-04T09:29:19;3.53;;;1.48;;
54835;SDS011;43486;43.574;1.476;2022-10-04T09:31:56;5.25;;;2.03;;
54835;SDS011;43486;43.574;1.476;2022-10-04T09:56:49;3.38;;;1.48;;
54835;SDS011;43486;43.574;1.476;2022-10-04T10:13:55;6.05;;;2.35;;
54835;SDS011;43486;43.574;1.476;2022-10-04T10:38:23;1.80;;;1.17;;
54835;SDS011;43486;43.574;1.476;2022-10-04T10:52:23;6.30;;;1.90;;
54835;SDS011;43486;43.574;1.476;2022-10-04T10:55:16;4.55;;;2.10;;
54835;SDS011;43486;43.574;1.476;2022-10-04T11:47:48;4.38;;;2.13;;
54835;SDS011;43486;43.574;1.476;2022-10-04T11:59:05;4.88;;;1.73;;
54835;SDS011;43486;43.574;1.476;2022-10-04T12:04:45;5.85;;;2.00;;
54835;SDS011;43486;43.574;1.476;2022-10-04T12:10:02;1.42;;;1.20;;
54835;SDS011;43486;43.574;1.476;2022-10-04T12:12:33;3.95;;;1.65;;
54835;SDS011;43486;43.574;1.476;2022-10-04T12:31:32;4.30;;;1.33;;
54835;SDS011;43486;43.574;1.476;2022-10-04T12:34:02;3.92;;;1.65;;
54835;SDS011;43486;43.574;1.476;2022-10-04T12:44:42;4.90;;;1.50;;
54835;SDS011;43486;43.574;1.476;2022-10-04T12:47:34;3.80;;;1.58;;
54835;SDS011;43486;43.574;1.476;2022-10-04T12:53:12;4.15;;;1.75;;
54835;SDS011;43486;43.574;1.476;2022-10-04T13:06:53;2.60;;;1.30;;
54835;SDS011;43486;43.574;1.476;2022-10-04T13:09:41;4.82;;;2.00;;
54835;SDS011;43486;43.574;1.476;2022-10-04T13:15:27;4.78;;;1.40;;
54835;SDS011;43486;43.574;1.476;2022-10-04T13:18:01;3.33;;;1.80;;
54835;SDS011;43486;43.574;1.476;2022-10-04T13:21:01;2.63;;;1.38;;
54835;SDS011;43486;43.574;1.476;2022-10-04T13:26:31;2.08;;;1.52;;
54835;SDS011;43486;43.574;1.476;2022-10-04T13:29:10;4.00;;;1.20;;
54835;SDS011;43486;43.574;1.476;2022-10-04T13:31:51;1.52;;;1.08;;
54835;SDS011;43486;43.574;1.476;2022-10-04T13:34:35;3.30;;;1.73;;
54835;SDS011;43486;43.574;1.476;2022-10-04T13:37:17;1.63;;;1.15;;
54835;SDS011;43486;43.574;1.476;2022-10-04T13:43:26;3.03;;;1.40;;
54835;SDS011;43486;43.574;1.476;2022-10-04T13:46:16;3.05;;;1.40;;
54835;SDS011;43486;43.574;1.476;2022-10-04T14:03:27;2.72;;;1.42;;
54835;SDS011;43486;43.574;1.476;2022-10-04T14:06:11;4.07;;;1.45;;
54835;SDS011;43486;43.574;1.476;2022-10-04T14:25:03;2.55;;;1.25;;
54835;SDS011;43486;43.574;1.476;2022-10-04T14:34:21;2.10;;;1.20;;
54835;SDS011;43486;43.574;1.476;2022-10-04T14:54:24;2.88;;;1.23;;
54835;SDS011;43486;43.574;1.476;2022-10-04T15:05:06;2.78;;;1.50;;
54835;SDS011;43486;43.574;1.476;2022-10-04T15:07:40;3.30;;;1.20;;
54835;SDS011;43486;43.574;1.476;2022-10-04T15:13:00;2.15;;;1.25;;
54835;SDS011;43486;43.574;1.476;2022-10-04T15:15:30;1.50;;;0.95;;
54835;SDS011;43486;43.574;1.476;2022-10-04T15:17:59;4.60;;;1.88;;
54835;SDS011;43486;43.574;1.476;2022-10-04T15:20:50;1.98;;;1.00;;
54835;SDS011;43486;43.574;1.476;2022-10-04T15:23:29;3.15;;;1.35;;
54835;SDS011;43486;43.574;1.476;2022-10-04T15:33:54;4.78;;;1.88;;
54835;SDS011;43486;43.574;1.476;2022-10-04T15:38:56;2.30;;;1.58;;
54835;SDS011;43486;43.574;1.476;2022-10-04T15:55:11;0.88;;;0.80;;
54835;SDS011;43486;43.574;1.476;2022-10-04T16:00:43;2.40;;;1.30;;
54835;SDS011;43486;43.574;1.476;2022-10-04T16:23:29;1.77;;;1.05;;
54835;SDS011;43486;43.574;1.476;2022-10-04T16:25:59;2.70;;;1.65;;
54835;SDS011;43486;43.574;1.476;2022-10-04T16:34:32;2.67;;;1.35;;
54835;SDS011;43486;43.574;1.476;2022-10-04T16:47:51;2.03;;;1.23;;
54835;SDS011;43486;43.574;1.476;2022-10-04T16:55:53;3.38;;;1.63;;
54835;SDS011;43486;43.574;1.476;2022-10-04T17:06:31;6.60;;;2.05;;
54835;SDS011;43486;43.574;1.476;2022-10-04T17:17:44;3.17;;;1.42;;
54835;SDS011;43486;43.574;1.476;2022-10-04T17:21:03;1.88;;;1.00;;
54835;SDS011;43486;43.574;1.476;2022-10-04T17:36:37;2.80;;;0.93;;
54835;SDS011;43486;43.574;1.476;2022-10-04T17:47:10;3.25;;;1.77;;
54835;SDS011;43486;43.574;1.476;2022-10-04T17:52:59;4.68;;;1.30;;
54835;SDS011;43486;43.574;1.476;2022-10-04T17:55:48;3.47;;;1.88;;
54835;SDS011;43486;43.574;1.476;2022-10-04T18:01:05;3.00;;;1.67;;
54835;SDS011;43486;43.574;1.476;2022-10-04T18:03:35;4.50;;;1.98;;
54835;SDS011;43486;43.574;1.476;2022-10-04T18:06:10;2.95;;;1.42;;
54835;SDS011;43486;43.574;1.476;2022-10-04T18:08:43;2.10;;;1.35;;
54835;SDS011;43486;43.574;1.476;2022-10-04T18:13:59;6.45;;;1.83;;
54835;SDS011;43486;43.574;1.476;2022-10-04T18:16:29;3.60;;;1.83;;
54835;SDS011;43486;43.574;1.476;2022-10-04T18:18:55;3.85;;;1.80;;
54835;SDS011;43486;43.574;1.476;2022-10-04T18:23:53;4.10;;;2.13;;
54835;SDS011;43486;43.574;1.476;2022-10-04T18:26:19;3.97;;;2.23;;
54835;SDS011;43486;43.574;1.476;2022-10-04T18:28:45;4.75;;;1.60;;
54835;SDS011;43486;43.574;1.476;2022-10-04T18:31:57;2.25;;;1.45;;
54835;SDS011;43486;43.574;1.476;2022-10-04T18:34:13;4.07;;;1.50;;
54835;SDS011;43486;43.574;1.476;2022-10-04T18:36:56;4.95;;;1.83;;
54835;SDS011;43486;43.574;1.476;2022-10-04T18:39:44;3.20;;;1.38;;
54835;SDS011;43486;43.574;1.476;2022-10-04T18:44:59;8.55;;;2.03;;
54835;SDS011;43486;43.574;1.476;2022-10-04T18:55:51;4.53;;;1.83;;
54835;SDS011;43486;43.574;1.476;2022-10-04T19:07:14;2.92;;;1.83;;
54835;SDS011;43486;43.574;1.476;2022-10-04T19:15:40;4.75;;;1.65;;
54835;SDS011;43486;43.574;1.476;2022-10-04T19:18:17;3.90;;;1.45;;
54835;SDS011;43486;43.574;1.476;2022-10-04T19:20:53;2.70;;;1.67;;
54835;SDS011;43486;43.574;1.476;2022-10-04T19:26:33;4.53;;;1.70;;
54835;SDS011;43486;43.574;1.476;2022-10-04T19:31:53;4.15;;;1.35;;
54835;SDS011;43486;43.574;1.476;2022-10-04T19:34:26;1.98;;;1.10;;
54835;SDS011;43486;43.574;1.476;2022-10-04T19:42:51;3.13;;;1.50;;
54835;SDS011;43486;43.574;1.476;2022-10-04T19:45:58;3.42;;;1.55;;
54835;SDS011;43486;43.574;1.476;2022-10-04T19:48:26;3.28;;;1.63;;
54835;SDS011;43486;43.574;1.476;2022-10-04T19:50:52;5.30;;;1.90;;
54835;SDS011;43486;43.574;1.476;2022-10-04T19:55:59;3.75;;;1.42;;
54835;SDS011;43486;43.574;1.476;2022-10-04T20:01:15;4.25;;;1.67;;
54835;SDS011;43486;43.574;1.476;2022-10-04T20:03:47;4.28;;;1.55;;
54835;SDS011;43486;43.574;1.476;2022-10-04T20:06:32;2.33;;;1.40;;
54835;SDS011;43486;43.574;1.476;2022-10-04T20:09:22;4.70;;;1.55;;
54835;SDS011;43486;43.574;1.476;2022-10-04T20:12:01;3.58;;;1.67;;
54835;SDS011;43486;43.574;1.476;2022-10-04T20:21:54;3.72;;;1.55;;
54835;SDS011;43486;43.574;1.476;2022-10-04T20:24:47;3.78;;;1.63;;
54835;SDS011;43486;43.574;1.476;2022-10-04T20:34:52;4.45;;;2.08;;
54835;SDS011;43486;43.574;1.476;2022-10-04T20:37:19;5.53;;;2.42;;
54835;SDS011;43486;43.574;1.476;2022-10-04T20:42:27;7.05;;;2.35;;
54835;SDS011;43486;43.574;1.476;2022-10-04T20:45:00;3.47;;;1.92;;
54835;SDS011;43486;43.574;1.476;2022-10-04T20:47:34;7.97;;;3.08;;
54835;SDS011;43486;43.574;1.476;2022-10-04T20:50:03;6.32;;;2.72;;
54835;SDS011;43486;43.574;1.476;2022-10-04T20:52:32;6.30;;;2.83;;
54835;SDS011;43486;43.574;1.476;2022-10-04T20:54:59;5.85;;;2.10;;
54835;SDS011;43486;43.574;1.476;2022-10-04T20:57:26;6.00;;;2.33;;
54835;SDS011;43486;43.574;1.476;2022-10-04T20:59:54;5.75;;;2.40;;
54835;SDS011;43486;43.574;1.476;2022-10-04T21:02:21;5.25;;;2.08;;
54835;SDS011;43486;43.574;1.476;2022-10-04T21:04:47;8.55;;;2.13;;
54835;SDS011;43486;43.574;1.476;2022-10-04T21:07:17;4.85;;;1.80;;
54835;SDS011;43486;43.574;1.476;2022-10-04T21:09:44;6.43;;;2.60;;
54835;SDS011;43486;43.574;1.476;2022-10-04T21:15:04;9.02;;;2.88;;
54835;SDS011;43486;43.574;1.476;2022-10-04T21:17:39;7.72;;;2.28;;
54835;SDS011;43486;43.574;1.476;2022-10-04T21:20:08;9.75;;;3.00;;
54835;SDS011;43486;43.574;1.476;2022-10-04T21:22:38;2.85;;;1.73;;
54835;SDS011;43486;43.574;1.476;2022-10-04T21:25:49;10.82;;;2.78;;
54835;SDS011;43486;43.574;1.476;2022-10-04T21:28:38;6.40;;;1.92;;
54835;SDS011;43486;43.574;1.476;2022-10-04T21:30:48;4.32;;;1.60;;
54835;SDS011;43486;43.574;1.476;2022-10-04T21:33:13;6.40;;;2.55;;
54835;SDS011;43486;43.574;1.476;2022-10-04T21:35:39;8.07;;;2.53;;
54835;SDS011;43486;43.574;1.476;2022-10-04T21:38:04;3.03;;;1.63;;
54835;SDS011;43486;43.574;1.476;2022-10-04T21:40:30;7.35;;;2.65;;
54835;SDS011;43486;43.574;1.476;2022-10-04T21:42:55;13.40;;;2.53;;
54835;SDS011;43486;43.574;1.476;2022-10-04T21:45:20;4.75;;;2.38;;
54835;SDS011;43486;43.574;1.476;2022-10-04T21:47:46;6.10;;;1.23;;
54835;SDS011;43486;43.574;1.476;2022-10-04T21:50:11;4.00;;;2.28;;
54835;SDS011;43486;43.574;1.476;2022-10-04T21:52:36;5.90;;;1.85;;
54835;SDS011;43486;43.574;1.476;2022-10-04T21:55:02;4.45;;;1.90;;
54835;SDS011;43486;43.574;1.476;2022-10-04T21:57:34;3.22;;;2.05;;
54835;SDS011;43486;43.574;1.476;2022-10-04T21:59:59;4.20;;;1.92;;
54835;SDS011;43486;43.574;1.476;2022-10-04T22:02:25;4.90;;;2.13;;
54835;SDS011;43486;43.574;1.476;2022-10-04T22:04:50;4.05;;;2.35;;
54835;SDS011;43486;43.574;1.476;2022-10-04T22:07:15;3.60;;;1.80;;
54835;SDS011;43486;43.574;1.476;2022-10-04T22:09:41;3.97;;;1.75;;
54835;SDS011;43486;43.574;1.476;2022-10-04T22:12:06;3.95;;;2.20;;
54835;SDS011;43486;43.574;1.476;2022-10-04T22:14:31;3.67;;;1.83;;
54835;SDS011;43486;43.574;1.476;2022-10-04T22:16:57;5.57;;;2.03;;
54835;SDS011;43486;43.574;1.476;2022-10-04T22:19:22;5.15;;;1.60;;
54835;SDS011;43486;43.574;1.476;2022-10-04T22:21:47;4.00;;;1.92;;
54835;SDS011;43486;43.574;1.476;2022-10-04T22:24:17;4.40;;;1.60;;
54835;SDS011;43486;43.574;1.476;2022-10-04T22:26:45;2.95;;;1.77;;
54835;SDS011;43486;43.574;1.476;2022-10-04T22:29:14;4.18;;;2.08;;
54835;SDS011;43486;43.574;1.476;2022-10-04T22:31:40;6.38;;;1.60;;
54835;SDS011;43486;43.574;1.476;2022-10-04T22:34:15;3.85;;;1.55;;
54835;SDS011;43486;43.574;1.476;2022-10-04T22:36:43;4.45;;;1.67;;
54835;SDS011;43486;43.574;1.476;2022-10-04T22:41:44;4.53;;;1.70;;
54835;SDS011;43486;43.574;1.476;2022-10-04T22:46:58;3.05;;;1.42;;
54835;SDS011;43486;43.574;1.476;2022-10-04T22:49:25;3.35;;;1.75;;
54835;SDS011;43486;43.574;1.476;2022-10-04T22:51:52;4.38;;;1.65;;
54835;SDS011;43486;43.574;1.476;2022-10-04T22:54:20;3.65;;;2.20;;
54835;SDS011;43486;43.574;1.476;2022-10-04T22:56:47;4.20;;;1.67;;
54835;SDS011;43486;43.574;1.476;2022-10-04T22:59:14;3.95;;;1.85;;
54835;SDS011;43486;43.574;1.476;2022-10-04T23:01:41;4.40;;;1.95;;
54835;SDS011;43486;43.574;1.476;2022-10-04T23:04:20;3.45;;;1.98;;
54835;SDS011;43486;43.574;1.476;2022-10-04T23:06:46;3.10;;;1.58;;
54835;SDS011;43486;43.574;1.476;2022-10-04T23:09:12;3.20;;;1.75;;
54835;SDS011;43486;43.574;1.476;2022-10-04T23:11:37;4.22;;;1.58;;
54835;SDS011;43486;43.574;1.476;2022-10-04T23:14:03;4.63;;;1.75;;
54835;SDS011;43486;43.574;1.476;2022-10-04T23:16:28;4.43;;;2.65;;
54835;SDS011;43486;43.574;1.476;2022-10-04T23:19:27;2.15;;;1.55;;
54835;SDS011;43486;43.574;1.476;2022-10-04T23:21:47;2.85;;;1.50;;
54835;SDS011;43486;43.574;1.476;2022-10-04T23:26:40;4.70;;;1.55;;
54835;SDS011;43486;43.574;1.476;2022-10-04T23:29:15;5.45;;;2.00;;
54835;SDS011;43486;43.574;1.476;2022-10-04T23:31:50;3.97;;;1.73;;
54835;SDS011;43486;43.574;1.476;2022-10-04T23:34:32;4.80;;;1.65;;
54835;SDS011;43486;43.574;1.476;2022-10-04T23:36:58;3.00;;;1.48;;
54835;SDS011;43486;43.574;1.476;2022-10-04T23:39:25;3.42;;;1.88;;
54835;SDS011;43486;43.574;1.476;2022-10-04T23:41:53;3.85;;;2.30;;
54835;SDS011;43486;43.574;1.476;2022-10-04T23:44:21;3.50;;;2.00;;
54835;SDS011;43486;43.574;1.476;2022-10-04T23:46:48;3.78;;;1.52;;
54835;SDS011;43486;43.574;1.476;2022-10-04T23:49:14;4.30;;;2.17;;
54835;SDS011;43486;43.574;1.476;2022-10-04T23:51:40;5.80;;;1.80;;
54835;SDS011;43486;43.574;1.476;2022-10-04T23:54:11;3.25;;;2.35;;
54835;SDS011;43486;43.574;1.476;2022-10-04T23:56:38;3.03;;;2.05;;
54835;SDS011;43486;43.574;1.476;2022-10-04T23:59:04;5.75;;;2.78;;
